createdAt,value
2016-09-17T00:00:22.202Z,58.60
2016-09-17T00:01:24.227Z,58.50
2016-09-17T00:02:28.829Z,58.50
2016-09-17T00:03:27.011Z,58.50
2016-09-17T00:04:27.081Z,58.50
2016-09-17T00:05:27.199Z,58.40
2016-09-17T00:06:28.276Z,58.60
2016-09-17T00:07:25.090Z,58.90
2016-09-17T00:08:32.236Z,58.50
2016-09-17T00:09:33.296Z,58.60
2016-09-17T00:10:25.317Z,58.50
2016-09-17T00:11:23.380Z,58.50
2016-09-17T00:12:28.918Z,58.60
2016-09-17T00:13:24.271Z,58.60
2016-09-17T00:14:23.507Z,58.60
2016-09-17T00:15:26.172Z,58.60
2016-09-17T00:16:27.780Z,58.60
2016-09-17T00:17:27.055Z,58.70
2016-09-17T00:18:28.657Z,58.60
2016-09-17T00:19:23.026Z,58.60
2016-09-17T00:20:29.352Z,58.60
2016-09-17T00:21:28.160Z,58.60
2016-09-17T00:22:25.908Z,58.70
2016-09-17T00:23:28.091Z,58.70
2016-09-17T00:24:27.667Z,58.60
2016-09-17T00:25:28.131Z,58.60
2016-09-17T00:26:27.827Z,58.70
2016-09-17T00:27:31.714Z,58.70
2016-09-17T00:28:23.564Z,59.10
2016-09-17T00:29:26.869Z,58.60
2016-09-17T00:30:26.280Z,58.70
2016-09-17T00:31:28.117Z,58.70
2016-09-17T00:32:26.376Z,58.70
2016-09-17T00:33:29.073Z,58.70
2016-09-17T00:34:28.100Z,58.70
2016-09-17T00:35:26.523Z,58.70
2016-09-17T00:36:28.065Z,58.60
2016-09-17T00:37:27.764Z,58.70
2016-09-17T00:38:23.293Z,57.90
2016-09-17T00:39:32.593Z,58.70
2016-09-17T00:40:23.090Z,58.90
2016-09-17T00:41:22.453Z,58.70
2016-09-17T00:42:19.643Z,58.60
2016-09-17T00:43:28.874Z,58.70
2016-09-17T00:44:28.487Z,58.70
2016-09-17T00:45:29.285Z,58.70
2016-09-17T00:46:32.694Z,58.70
2016-09-17T00:47:27.960Z,58.60
2016-09-17T00:48:22.964Z,58.80
2016-09-17T00:49:22.471Z,58.70
2016-09-17T00:50:31.883Z,is
2016-09-17T00:51:28.674Z,58.80
2016-09-17T00:52:22.520Z,58.90
2016-09-17T00:53:29.093Z,58.80
2016-09-17T00:54:32.502Z,58.70
2016-09-17T00:55:22.282Z,58.80
2016-09-17T00:56:21.865Z,58.80
2016-09-17T00:57:22.022Z,58.70
2016-09-17T00:58:17.062Z,58.80
2016-09-17T00:59:23.521Z,58.90
2016-09-17T01:00:41.354Z,59.00
2016-09-17T01:01:28.789Z,58.90
2016-09-17T01:02:23.341Z,59.20
2016-09-17T01:03:22.404Z,58.70
2016-09-17T01:04:29.541Z,58.80
2016-09-17T01:05:23.405Z,58.90
2016-09-17T01:06:27.191Z,58.90
2016-09-17T01:07:19.795Z,58.80
2016-09-17T01:08:28.654Z,58.80
2016-09-17T01:09:29.332Z,59.00
2016-09-17T01:10:27.664Z,58.90
2016-09-17T01:11:29.371Z,58.90
2016-09-17T01:12:26.188Z,58.80
2016-09-17T01:13:25.882Z,58.90
2016-09-17T01:14:23.160Z,58.80
2016-09-17T01:15:22.314Z,58.90
2016-09-17T01:16:18.585Z,is
2016-09-17T01:17:25.195Z,58.90
2016-09-17T01:18:34.540Z,58.90
2016-09-17T01:19:21.959Z,59.00
2016-09-17T01:20:26.810Z,59.10
2016-09-17T01:21:26.864Z,59.00
2016-09-17T01:22:23.961Z,59.00
2016-09-17T01:23:23.295Z,59.00
2016-09-17T01:24:22.515Z,59.00
2016-09-17T01:25:28.151Z,59.00
2016-09-17T01:26:22.425Z,59.00
2016-09-17T01:27:24.553Z,58.40
2016-09-17T01:28:23.406Z,59.00
2016-09-17T01:29:24.600Z,59.20
2016-09-17T01:30:23.126Z,59.10
2016-09-17T01:31:25.082Z,59.10
2016-09-17T01:32:26.874Z,59.10
2016-09-17T01:33:27.073Z,59.10
2016-09-17T01:34:29.155Z,59.20
2016-09-17T01:35:30.047Z,59.10
2016-09-17T01:36:37.941Z,59.20
2016-09-17T01:37:22.423Z,59.20
2016-09-17T01:38:25.454Z,59.20
2016-09-17T01:39:30.459Z,59.30
2016-09-17T01:40:26.746Z,59.30
2016-09-17T01:41:26.565Z,59.30
2016-09-17T01:42:22.674Z,59.20
2016-09-17T01:43:22.754Z,59.20
2016-09-17T01:44:18.945Z,58.50
2016-09-17T01:45:27.754Z,59.20
2016-09-17T01:46:29.886Z,59.30
2016-09-17T01:47:30.610Z,is
2016-09-17T01:48:22.309Z,59.30
2016-09-17T01:49:24.806Z,59.30
2016-09-17T01:50:23.052Z,59.20
2016-09-17T01:51:29.005Z,is
2016-09-17T01:52:28.610Z,59.20
2016-09-17T01:53:26.992Z,59.30
2016-09-17T01:54:31.035Z,59.30
2016-09-17T01:55:34.358Z,59.20
2016-09-17T01:56:24.585Z,59.30
2016-09-17T01:57:22.698Z,59.20
2016-09-17T01:58:29.028Z,59.20
2016-09-17T01:59:22.628Z,59.30
2016-09-17T02:00:23.411Z,58.20
2016-09-17T02:01:28.686Z,58.20
2016-09-17T02:02:37.704Z,58.80
2016-09-17T02:03:26.531Z,59.30
2016-09-17T02:04:28.386Z,59.20
2016-09-17T02:05:23.919Z,59.20
2016-09-17T02:06:25.354Z,59.20
2016-09-17T02:07:27.976Z,59.30
2016-09-17T02:08:21.082Z,59.30
2016-09-17T02:09:27.720Z,59.30
2016-09-17T02:10:31.736Z,59.20
2016-09-17T02:11:29.610Z,59.20
2016-09-17T02:12:26.853Z,59.20
2016-09-17T02:13:25.819Z,is
2016-09-17T02:14:16.835Z,59.20
2016-09-17T02:15:24.283Z,59.20
2016-09-17T02:16:23.915Z,59.20
2016-09-17T02:17:23.329Z,59.20
2016-09-17T02:18:22.658Z,59.00
2016-09-17T02:19:29.552Z,59.20
2016-09-17T02:20:27.758Z,59.20
2016-09-17T02:21:27.736Z,59.20
2016-09-17T02:22:28.845Z,59.20
2016-09-17T02:23:25.282Z,59.20
2016-09-17T02:24:25.178Z,59.30
2016-09-17T02:25:26.899Z,59.10
2016-09-17T02:26:22.602Z,58.90
2016-09-17T02:27:23.894Z,58.70
2016-09-17T02:28:22.119Z,59.10
2016-09-17T02:29:31.055Z,59.10
2016-09-17T02:30:28.650Z,59.00
2016-09-17T02:31:21.585Z,58.80
2016-09-17T02:32:22.344Z,58.80
2016-09-17T02:33:25.204Z,58.90
2016-09-17T02:34:21.472Z,58.80
2016-09-17T02:35:24.600Z,58.70
2016-09-17T02:36:28.823Z,58.70
2016-09-17T02:37:22.209Z,58.70
2016-09-17T02:38:17.808Z,58.70
2016-09-17T02:39:27.751Z,58.60
2016-09-17T02:40:30.698Z,58.50
2016-09-17T02:41:23.268Z,58.50
2016-09-17T02:42:29.285Z,58.40
2016-09-17T02:43:24.238Z,58.50
2016-09-17T02:44:27.479Z,58.50
2016-09-17T02:45:24.924Z,58.60
2016-09-17T02:46:33.814Z,58.40
2016-09-17T02:47:26.772Z,58.40
2016-09-17T02:48:25.199Z,58.30
2016-09-17T02:49:27.079Z,58.30
2016-09-17T02:50:33.228Z,58.30
2016-09-17T02:51:27.676Z,58.20
2016-09-17T02:52:28.816Z,58.20
2016-09-17T02:53:27.805Z,58.20
2016-09-17T02:54:22.252Z,58.30
2016-09-17T02:55:28.323Z,58.20
2016-09-17T02:56:17.736Z,58.80
2016-09-17T02:57:23.775Z,58.10
2016-09-17T02:58:24.529Z,58.20
2016-09-17T02:59:25.852Z,58.10
2016-09-17T03:00:25.139Z,57.20
2016-09-17T03:01:21.954Z,is
2016-09-17T03:02:27.099Z,58.10
2016-09-17T03:03:23.829Z,57.80
2016-09-17T03:04:21.745Z,58.00
2016-09-17T03:05:28.760Z,58.00
2016-09-17T03:06:33.079Z,58.00
2016-09-17T03:07:35.785Z,57.80
2016-09-17T03:08:22.987Z,57.80
2016-09-17T03:09:23.668Z,57.80
2016-09-17T03:10:22.683Z,58.30
2016-09-17T03:11:31.997Z,57.80
2016-09-17T03:12:26.110Z,57.70
2016-09-17T03:13:24.207Z,57.80
2016-09-17T03:14:27.969Z,is
2016-09-17T03:15:28.377Z,57.70
2016-09-17T03:16:28.151Z,57.80
2016-09-17T03:17:18.812Z,57.70
2016-09-17T03:18:30.393Z,57.80
2016-09-17T03:19:22.036Z,57.80
2016-09-17T03:20:27.333Z,57.70
2016-09-17T03:21:28.571Z,57.70
2016-09-17T03:22:21.805Z,is
2016-09-17T03:23:23.373Z,57.70
2016-09-17T03:24:19.171Z,57.80
2016-09-17T03:25:25.119Z,57.60
2016-09-17T03:26:25.022Z,57.70
2016-09-17T03:27:23.158Z,57.70
2016-09-17T03:28:22.962Z,57.70
2016-09-17T03:29:29.430Z,57.60
2016-09-17T03:30:27.412Z,57.70
2016-09-17T03:31:33.218Z,57.60
2016-09-17T03:32:27.957Z,57.50
2016-09-17T03:33:22.871Z,is
2016-09-17T03:34:34.513Z,57.50
2016-09-17T03:35:26.460Z,56.90
2016-09-17T03:36:29.230Z,57.30
2016-09-17T03:37:31.078Z,57.40
2016-09-17T03:38:23.923Z,57.40
2016-09-17T03:39:32.000Z,57.30
2016-09-17T03:40:23.209Z,57.30
2016-09-17T03:41:37.180Z,57.30
2016-09-17T03:42:14.966Z,57.40
2016-09-17T03:43:20.626Z,57.30
2016-09-17T03:44:22.990Z,57.30
2016-09-17T03:45:29.053Z,57.30
2016-09-17T03:46:25.919Z,57.30
2016-09-17T03:47:29.035Z,57.20
2016-09-17T03:48:23.521Z,57.30
2016-09-17T03:49:23.933Z,57.20
2016-09-17T03:50:29.379Z,57.20
2016-09-17T03:51:22.161Z,57.30
2016-09-17T03:52:28.224Z,57.30
2016-09-17T03:53:23.842Z,57.20
2016-09-17T03:54:28.199Z,57.30
2016-09-17T03:55:28.815Z,57.20
2016-09-17T03:56:25.885Z,57.30
2016-09-17T03:57:29.287Z,57.10
2016-09-17T03:58:16.087Z,57.20
2016-09-17T03:59:28.235Z,57.10
2016-09-17T04:00:23.839Z,57.20
2016-09-17T04:01:26.658Z,57.10
2016-09-17T04:02:30.808Z,57.10
2016-09-17T04:03:30.984Z,57.00
2016-09-17T04:04:24.260Z,57.10
2016-09-17T04:05:24.630Z,56.50
2016-09-17T04:06:26.158Z,57.00
2016-09-17T04:07:23.450Z,57.00
2016-09-17T04:08:27.866Z,is
2016-09-17T04:09:24.949Z,57.10
2016-09-17T04:10:28.565Z,57.10
2016-09-17T04:11:19.516Z,57.20
2016-09-17T04:12:32.948Z,57.00
2016-09-17T04:13:13.428Z,57.00
2016-09-17T04:14:15.130Z,57.00
2016-09-17T04:15:21.606Z,57.10
2016-09-17T04:16:35.516Z,56.90
2016-09-17T04:17:29.267Z,56.90
2016-09-17T04:18:15.140Z,57.00
2016-09-17T04:19:27.153Z,57.00
2016-09-17T04:20:26.341Z,57.00
2016-09-17T04:21:27.377Z,57.00
2016-09-17T04:22:28.174Z,is
2016-09-17T04:23:22.771Z,56.90
2016-09-17T04:24:28.924Z,56.90
2016-09-17T04:25:32.197Z,57.00
2016-09-17T04:26:23.555Z,56.80
2016-09-17T04:27:24.142Z,56.80
2016-09-17T04:28:28.225Z,56.90
2016-09-17T04:29:24.025Z,56.90
2016-09-17T04:30:27.924Z,56.90
2016-09-17T04:31:29.000Z,56.80
2016-09-17T04:32:28.960Z,56.80
2016-09-17T04:33:20.406Z,56.90
2016-09-17T04:34:34.196Z,57.00
2016-09-17T04:35:24.592Z,56.80
2016-09-17T04:36:38.345Z,56.70
2016-09-17T04:37:29.813Z,56.70
2016-09-17T04:38:27.687Z,56.70
2016-09-17T04:39:30.343Z,56.80
2016-09-17T04:40:28.627Z,56.70
2016-09-17T04:41:24.226Z,56.80
2016-09-17T04:42:29.267Z,56.70
2016-09-17T04:43:23.881Z,56.80
2016-09-17T04:44:28.644Z,56.80
2016-09-17T04:45:26.255Z,is
2016-09-17T04:46:30.418Z,56.80
2016-09-17T04:47:30.546Z,56.70
2016-09-17T04:48:28.669Z,56.70
2016-09-17T04:49:28.192Z,56.70
2016-09-17T04:50:28.505Z,56.60
2016-09-17T04:51:41.964Z,56.70
2016-09-17T04:52:22.196Z,56.80
2016-09-17T04:53:25.269Z,56.50
2016-09-17T04:54:34.428Z,56.80
2016-09-17T04:55:21.480Z,56.60
2016-09-17T04:56:24.801Z,56.80
2016-09-17T04:57:24.975Z,56.60
2016-09-17T04:58:23.581Z,56.60
2016-09-17T04:59:21.719Z,is
2016-09-17T05:00:28.441Z,56.60
2016-09-17T05:01:30.091Z,56.50
2016-09-17T05:02:28.178Z,56.60
2016-09-17T05:03:29.522Z,56.60
2016-09-17T05:04:29.677Z,56.60
2016-09-17T05:05:28.092Z,56.60
2016-09-17T05:06:27.414Z,56.70
2016-09-17T05:07:23.473Z,56.60
2016-09-17T05:08:21.865Z,56.50
2016-09-17T05:09:23.246Z,56.70
2016-09-17T05:10:28.258Z,56.50
2016-09-17T05:11:17.344Z,is
2016-09-17T05:12:21.297Z,56.50
2016-09-17T05:13:28.341Z,56.70
2016-09-17T05:14:25.131Z,56.70
2016-09-17T05:15:22.538Z,is
2016-09-17T05:16:24.085Z,56.50
2016-09-17T05:17:26.798Z,56.50
2016-09-17T05:18:23.187Z,56.40
2016-09-17T05:19:30.871Z,is
2016-09-17T05:20:22.691Z,55.70
2016-09-17T05:21:30.169Z,56.50
2016-09-17T05:22:28.549Z,56.50
2016-09-17T05:23:23.527Z,56.50
2016-09-17T05:24:29.187Z,56.50
2016-09-17T05:25:33.168Z,56.70
2016-09-17T05:26:26.546Z,56.50
2016-09-17T05:27:41.179Z,56.50
2016-09-17T05:28:23.189Z,56.50
2016-09-17T05:29:23.146Z,56.50
2016-09-17T05:30:21.981Z,56.50
2016-09-17T05:31:26.951Z,is
2016-09-17T05:32:28.584Z,56.60
2016-09-17T05:33:23.974Z,56.50
2016-09-17T05:34:27.025Z,56.50
2016-09-17T05:35:28.812Z,56.50
2016-09-17T05:36:28.154Z,56.50
2016-09-17T05:37:27.646Z,56.40
2016-09-17T05:38:21.333Z,56.50
2016-09-17T05:39:22.753Z,56.40
2016-09-17T05:40:29.080Z,56.50
2016-09-17T05:41:28.612Z,56.40
2016-09-17T05:42:21.539Z,56.50
2016-09-17T05:43:23.634Z,56.50
2016-09-17T05:44:24.965Z,56.50
2016-09-17T05:45:22.316Z,56.60
2016-09-17T05:46:20.729Z,56.70
2016-09-17T05:47:28.408Z,56.50
2016-09-17T05:48:28.540Z,56.40
2016-09-17T05:49:28.328Z,56.50
2016-09-17T05:50:28.769Z,56.50
2016-09-17T05:51:22.283Z,57.00
2016-09-17T05:52:28.845Z,56.40
2016-09-17T05:53:29.553Z,56.50
2016-09-17T05:54:18.781Z,is
2016-09-17T05:55:29.295Z,56.40
2016-09-17T05:56:28.688Z,56.40
2016-09-17T05:57:38.366Z,55.10
2016-09-17T05:58:27.998Z,55.10
2016-09-17T05:59:23.777Z,54.50
2016-09-17T06:00:28.735Z,54.40
2016-09-17T06:01:29.232Z,54.40
2016-09-17T06:02:16.797Z,is
2016-09-17T06:03:24.915Z,54.50
2016-09-17T06:04:23.118Z,54.80
2016-09-17T06:05:29.696Z,54.50
2016-09-17T06:06:23.948Z,54.70
2016-09-17T06:07:27.886Z,54.50
2016-09-17T06:08:23.147Z,is
2016-09-17T06:09:31.198Z,54.70
2016-09-17T06:10:22.508Z,is
2016-09-17T06:11:24.177Z,54.50
2016-09-17T06:12:28.037Z,54.40
2016-09-17T06:13:22.815Z,54.70
2016-09-17T06:14:32.440Z,54.60
2016-09-17T06:15:26.880Z,54.70
2016-09-17T06:16:28.732Z,54.50
2016-09-17T06:17:28.459Z,54.20
2016-09-17T06:18:25.035Z,54.40
2016-09-17T06:19:25.476Z,54.30
2016-09-17T06:20:23.737Z,54.50
2016-09-17T06:21:28.402Z,54.40
2016-09-17T06:22:25.926Z,54.50
2016-09-17T06:23:19.422Z,54.40
2016-09-17T06:24:31.518Z,54.40
2016-09-17T06:25:31.518Z,54.50
2016-09-17T06:26:25.007Z,54.40
2016-09-17T06:27:31.787Z,54.60
2016-09-17T06:28:17.770Z,54.30
2016-09-17T06:29:27.169Z,54.20
2016-09-17T06:30:23.866Z,54.60
2016-09-17T06:31:42.588Z,54.60
2016-09-17T06:32:28.478Z,54.30
2016-09-17T06:33:34.896Z,54.20
2016-09-17T06:34:28.208Z,54.10
2016-09-17T06:35:25.285Z,54.40
2016-09-17T06:36:21.384Z,54.50
2016-09-17T06:37:23.282Z,54.10
2016-09-17T06:38:16.732Z,54.10
2016-09-17T06:39:19.682Z,54.40
2016-09-17T06:40:22.966Z,54.00
2016-09-17T06:41:27.362Z,54.10
2016-09-17T06:42:28.365Z,54.00
2016-09-17T06:43:28.864Z,54.00
2016-09-17T06:44:27.833Z,54.00
2016-09-17T06:45:22.703Z,54.00
2016-09-17T06:46:19.947Z,54.10
2016-09-17T06:47:29.157Z,54.10
2016-09-17T06:48:16.617Z,54.00
2016-09-17T06:49:15.092Z,54.10
2016-09-17T06:50:37.877Z,54.00
2016-09-17T06:51:22.267Z,54.20
2016-09-17T06:52:27.638Z,is
2016-09-17T06:53:12.192Z,53.90
2016-09-17T06:54:19.590Z,53.70
2016-09-17T06:55:28.749Z,53.80
2016-09-17T06:56:24.246Z,53.90
2016-09-17T06:57:27.519Z,54.10
2016-09-17T06:58:19.368Z,54.20
2016-09-17T06:59:18.294Z,54.40
2016-09-17T07:00:23.828Z,54.00
2016-09-17T07:01:37.496Z,54.20
2016-09-17T07:02:25.508Z,54.10
2016-09-17T07:03:18.328Z,54.00
2016-09-17T07:04:23.376Z,53.90
2016-09-17T07:05:39.039Z,53.90
2016-09-17T07:06:23.899Z,53.80
2016-09-17T07:07:23.615Z,53.90
2016-09-17T07:08:19.663Z,53.90
2016-09-17T07:09:20.905Z,is
2016-09-17T07:10:29.323Z,53.90
2016-09-17T07:11:16.117Z,is
2016-09-17T07:12:24.002Z,53.90
2016-09-17T07:13:19.017Z,53.90
2016-09-17T07:14:18.522Z,54.30
2016-09-17T07:15:20.166Z,53.90
2016-09-17T07:16:23.268Z,54.00
2016-09-17T07:17:20.778Z,53.90
2016-09-17T07:18:24.020Z,54.10
2016-09-17T07:19:21.735Z,53.90
2016-09-17T07:20:29.078Z,54.00
2016-09-17T07:21:26.596Z,54.10
2016-09-17T07:22:31.571Z,53.80
2016-09-17T07:23:22.448Z,54.20
2016-09-17T07:24:27.405Z,54.40
2016-09-17T07:25:27.575Z,54.60
2016-09-17T07:26:39.075Z,54.70
2016-09-17T07:27:22.070Z,54.40
2016-09-17T07:28:28.902Z,55.10
2016-09-17T07:29:22.835Z,is
2016-09-17T07:30:23.543Z,is
2016-09-17T07:31:20.625Z,55.30
2016-09-17T07:32:22.609Z,55.20
2016-09-17T07:33:15.179Z,55.20
2016-09-17T07:34:22.236Z,55.00
2016-09-17T07:35:25.330Z,55.10
2016-09-17T07:36:24.402Z,54.90
2016-09-17T07:37:17.033Z,is
2016-09-17T07:38:28.673Z,54.90
2016-09-17T07:39:23.824Z,54.90
2016-09-17T07:40:22.835Z,54.80
2016-09-17T07:41:28.225Z,54.90
2016-09-17T07:42:25.981Z,is
2016-09-17T07:43:16.536Z,54.70
2016-09-17T07:44:23.265Z,54.90
2016-09-17T07:45:24.366Z,54.80
2016-09-17T07:46:27.420Z,is
2016-09-17T07:47:21.954Z,54.90
2016-09-17T07:48:17.172Z,55.10
2016-09-17T07:49:19.697Z,55.00
2016-09-17T07:50:32.407Z,55.00
2016-09-17T07:51:22.969Z,54.90
2016-09-17T07:52:32.522Z,54.90
2016-09-17T07:53:21.679Z,54.90
2016-09-17T07:54:21.156Z,54.90
2016-09-17T07:55:23.574Z,54.90
2016-09-17T07:56:29.174Z,55.00
2016-09-17T07:57:28.113Z,55.00
2016-09-17T07:58:19.030Z,55.00
2016-09-17T07:59:18.899Z,55.00
2016-09-17T08:00:19.597Z,55.00
2016-09-17T08:01:24.997Z,55.00
2016-09-17T08:02:24.798Z,55.10
2016-09-17T08:03:22.528Z,55.00
2016-09-17T08:04:21.914Z,55.00
2016-09-17T08:05:29.643Z,55.10
2016-09-17T08:07:20.226Z,55.10
2016-09-17T08:08:27.709Z,55.10
2016-09-17T08:09:31.446Z,55.10
2016-09-17T08:10:28.452Z,55.00
2016-09-17T08:11:25.479Z,55.10
2016-09-17T08:12:21.918Z,55.10
2016-09-17T08:13:28.992Z,55.20
2016-09-17T08:14:28.838Z,55.10
2016-09-17T08:15:28.007Z,55.20
2016-09-17T08:16:30.552Z,55.20
2016-09-17T08:17:25.475Z,55.20
2016-09-17T08:18:23.617Z,55.20
2016-09-17T08:19:24.517Z,55.30
2016-09-17T08:20:27.231Z,55.30
2016-09-17T08:21:33.070Z,55.00
2016-09-17T08:22:31.902Z,55.30
2016-09-17T08:23:27.202Z,55.30
2016-09-17T08:24:40.166Z,55.40
2016-09-17T08:25:27.425Z,55.30
2016-09-17T08:26:19.651Z,55.30
2016-09-17T08:27:29.343Z,55.30
2016-09-17T08:28:27.858Z,55.50
2016-09-17T08:29:27.044Z,55.50
2016-09-17T08:30:19.476Z,55.40
2016-09-17T08:31:25.522Z,55.40
2016-09-17T08:32:31.220Z,55.40
2016-09-17T08:33:25.094Z,55.50
2016-09-17T08:34:25.648Z,55.50
2016-09-17T08:35:23.190Z,55.50
2016-09-17T08:37:57.882Z,55.40
2016-09-17T08:39:08.543Z,55.50
2016-09-17T08:40:29.978Z,54.60
2016-09-17T08:41:14.498Z,55.50
